createdAt,value
2023-04-22T00:03:04.323Z,99.90
2023-04-22T00:08:07.231Z,99.90
2023-04-22T01:03:42.984Z,99.90
2023-04-22T01:08:49.909Z,99.90
2023-04-22T01:13:53.261Z,99.90
2023-04-22T01:18:55.922Z,99.90
2023-04-22T01:24:01.417Z,99.90
2023-04-22T01:29:05.230Z,99.90
2023-04-22T01:34:07.940Z,99.90
2023-04-22T01:44:14.396Z,99.90
2023-04-22T02:04:31.019Z,99.90
2023-04-22T02:09:34.029Z,99.90
2023-04-22T02:19:40.872Z,99.90
2023-04-22T02:24:43.899Z,99.90
2023-04-22T02:34:52.447Z,99.90
2023-04-22T02:45:03.166Z,99.90
2023-04-22T02:50:07.488Z,99.90
2023-04-22T02:55:10.525Z,99.90
2023-04-22T03:15:24.123Z,99.90
2023-04-22T03:25:30.052Z,99.90
2023-04-22T04:11:24.405Z,99.90
2023-04-22T04:16:30.170Z,99.90
2023-04-22T04:21:40.222Z,99.90
2023-04-22T04:26:43.466Z,99.90
2023-04-22T04:31:50.381Z,99.90
2023-04-22T04:36:53.147Z,99.90
2023-04-22T04:42:02.104Z,99.90
2023-04-22T04:47:07.318Z,99.90
2023-04-22T04:52:12.001Z,99.90
2023-04-22T04:57:16.301Z,99.90
2023-04-22T05:02:19.851Z,99.90
2023-04-22T05:07:23.367Z,99.90
2023-04-22T05:12:28.128Z,99.90
2023-04-22T05:17:31.708Z,99.90
2023-04-22T05:22:36.858Z,99.90
2023-04-22T05:27:41.308Z,99.90
2023-04-22T05:32:45.513Z,99.00
2023-04-22T05:37:48.245Z,97.50
2023-04-22T05:42:50.821Z,98.10
2023-04-22T05:47:53.525Z,99.90
2023-04-22T05:52:57.281Z,99.90
2023-04-22T05:57:59.917Z,99.90
2023-04-22T06:03:14.394Z,99.90
2023-04-22T06:08:17.870Z,99.90
2023-04-22T06:13:20.725Z,99.90
2023-04-22T06:18:23.306Z,99.90
2023-04-22T06:23:26.130Z,99.90
2023-04-22T06:28:29.734Z,99.90
2023-04-22T06:33:37.060Z,99.90
2023-04-22T06:38:39.587Z,99.90
2023-04-22T06:44:02.605Z,99.90
2023-04-22T06:49:25.613Z,99.90
2023-04-22T06:54:33.879Z,99.90
2023-04-22T06:59:36.886Z,99.90
2023-04-22T07:04:40.146Z,98.20
2023-04-22T07:09:43.130Z,93.50
2023-04-22T07:14:47.022Z,94.20
2023-04-22T07:19:49.928Z,91.10
2023-04-22T07:24:52.614Z,90.40
2023-04-22T07:29:55.252Z,88.40
2023-04-22T07:34:58.083Z,90.20
2023-04-22T07:40:00.560Z,90.30
2023-04-22T07:45:03.329Z,82.00
2023-04-22T07:50:06.590Z,87.20
2023-04-22T07:55:09.738Z,80.70
2023-04-22T08:00:13.590Z,79.50
2023-04-22T08:05:16.202Z,75.20
2023-04-22T08:10:19.054Z,71.80
2023-04-22T08:15:21.681Z,69.20
2023-04-22T08:20:25.686Z,71.80
2023-04-22T08:25:28.813Z,70.60
2023-04-22T08:30:31.586Z,69.80
2023-04-22T08:35:37.794Z,68.20
2023-04-22T08:40:43.471Z,68.60
2023-04-22T08:45:46.850Z,67.50
2023-04-22T08:50:50.252Z,67.30
2023-04-22T08:55:55.721Z,59.30
2023-04-22T09:00:58.409Z,69.70
2023-04-22T09:06:03.693Z,63.10
2023-04-22T09:11:06.262Z,62.50
2023-04-22T09:16:09.138Z,58.30
2023-04-22T09:21:12.459Z,61.30
2023-04-22T09:26:18.229Z,61.80
2023-04-22T09:31:22.270Z,66.50
2023-04-22T09:36:29.227Z,64.30
2023-04-22T09:41:34.042Z,60.10
2023-04-22T09:46:37.012Z,60.10
2023-04-22T09:51:42.698Z,64.10
2023-04-22T09:56:49.463Z,57.20
2023-04-22T10:01:55.034Z,57.60
2023-04-22T10:06:57.693Z,63.10
2023-04-22T10:12:01.547Z,64.00
2023-04-22T10:17:05.418Z,61.90
2023-04-22T10:22:11.493Z,66.20
2023-04-22T10:27:14.162Z,59.20
2023-04-22T10:32:19.680Z,61.10
2023-04-22T10:37:25.519Z,61.90
2023-04-22T10:42:28.940Z,58.40
2023-04-22T10:47:31.820Z,64.30
2023-04-22T10:52:35.617Z,60.60
2023-04-22T10:57:47.453Z,59.10
2023-04-22T11:03:04.984Z,60.30
2023-04-22T11:08:16.637Z,61.40
2023-04-22T11:13:21.615Z,63.30
2023-04-22T11:18:27.236Z,64.80
2023-04-22T11:23:30.210Z,62.90
2023-04-22T11:28:33.247Z,62.70
2023-04-22T11:33:38.528Z,62.00
2023-04-22T11:38:41.165Z,59.40
2023-04-22T11:43:48.293Z,60.40
2023-04-22T11:48:50.761Z,64.00
2023-04-22T11:53:53.251Z,64.30
2023-04-22T11:58:55.938Z,66.00
2023-04-22T12:04:01.464Z,66.70
2023-04-22T12:09:04.344Z,61.20
2023-04-22T12:14:07.038Z,59.40
2023-04-22T12:19:10.483Z,63.70
2023-04-22T12:24:13.011Z,59.70
2023-04-22T12:29:15.673Z,59.70
2023-04-22T12:34:18.735Z,61.80
2023-04-22T12:39:21.580Z,57.80
2023-04-22T12:44:27.690Z,59.80
2023-04-22T12:49:31.084Z,61.70
2023-04-22T12:54:34.225Z,63.70
2023-04-22T12:59:37.113Z,60.00
2023-04-22T13:04:39.696Z,60.30
2023-04-22T13:09:42.493Z,59.30
2023-04-22T13:14:45.683Z,58.50
2023-04-22T13:19:50.839Z,60.50
2023-04-22T13:24:54.712Z,60.00
2023-04-22T13:29:57.594Z,65.10
2023-04-22T13:35:02.673Z,62.10
2023-04-22T13:40:06.493Z,56.50
2023-04-22T13:45:09.664Z,58.30
2023-04-22T13:50:12.277Z,57.00
2023-04-22T13:55:15.281Z,57.70
2023-04-22T14:00:18.004Z,59.80
2023-04-22T14:05:20.561Z,57.90
2023-04-22T14:10:23.218Z,59.60
2023-04-22T14:15:25.936Z,58.20
2023-04-22T14:20:28.755Z,57.50
2023-04-22T14:25:31.969Z,61.80
2023-04-22T14:30:34.677Z,59.20
2023-04-22T14:35:38.634Z,58.00
2023-04-22T14:40:41.367Z,60.00
2023-04-22T14:45:44.266Z,60.90
2023-04-22T14:50:46.995Z,61.40
2023-04-22T14:55:49.631Z,59.60
2023-04-22T15:00:53.238Z,58.60
2023-04-22T15:05:56.359Z,57.60
2023-04-22T15:11:00.260Z,55.70
2023-04-22T15:16:03.101Z,61.00
2023-04-22T15:21:10.192Z,62.50
2023-04-22T15:26:12.933Z,61.60
2023-04-22T15:31:19.093Z,61.40
2023-04-22T15:36:21.836Z,61.00
2023-04-22T15:41:26.798Z,62.30
2023-04-22T15:46:30.619Z,60.70
2023-04-22T15:51:33.372Z,59.90
2023-04-22T15:56:36.132Z,61.50
2023-04-22T16:01:40.582Z,61.60
2023-04-22T16:06:43.395Z,57.20
2023-04-22T16:11:48.822Z,57.70
2023-04-22T16:16:52.518Z,61.70
2023-04-22T16:21:55.781Z,63.80
2023-04-22T16:26:58.824Z,61.90
2023-04-22T16:32:01.585Z,62.60
2023-04-22T16:37:04.455Z,63.90
2023-04-22T16:42:07.227Z,64.40
2023-04-22T16:47:10.107Z,65.20
2023-04-22T16:52:14.100Z,64.30
2023-04-22T16:57:16.923Z,66.00
2023-04-22T17:02:19.908Z,66.70
2023-04-22T17:07:23.193Z,65.10
2023-04-22T17:12:26.613Z,66.50
2023-04-22T17:17:29.495Z,65.70
2023-04-22T17:22:32.424Z,66.10
2023-04-22T17:27:35.043Z,68.10
2023-04-22T17:32:37.581Z,68.00
2023-04-22T17:37:40.575Z,69.00
2023-04-22T17:42:46.354Z,70.40
2023-04-22T17:47:49.438Z,69.90
2023-04-22T17:52:52.360Z,72.20
2023-04-22T17:57:55.202Z,74.60
2023-04-22T18:02:58.131Z,75.10
2023-04-22T18:08:02.832Z,76.70
2023-04-22T18:13:06.460Z,78.30
2023-04-22T18:18:09.263Z,88.70
2023-04-22T18:23:12.152Z,90.10
2023-04-22T18:28:15.509Z,91.00
2023-04-22T18:33:18.165Z,91.80
2023-04-22T18:43:24.865Z,99.40
2023-04-22T18:53:31.714Z,99.90
2023-04-22T18:58:34.689Z,99.90
2023-04-22T19:03:39.484Z,99.90
2023-04-22T19:08:42.647Z,99.90
2023-04-22T19:13:46.404Z,99.90
2023-04-22T19:18:49.295Z,99.90
2023-04-22T19:23:53.039Z,99.90
2023-04-22T19:28:56.292Z,99.90
2023-04-22T19:33:59.740Z,99.90
2023-04-22T19:39:02.654Z,99.90
2023-04-22T19:44:09.308Z,99.90
2023-04-22T19:49:12.427Z,99.90
2023-04-22T19:54:16.558Z,99.90
2023-04-22T19:59:19.630Z,99.90
2023-04-22T20:04:24.271Z,99.90
2023-04-22T20:09:27.637Z,99.90
2023-04-22T20:14:32.535Z,99.90
2023-04-22T20:19:35.855Z,99.90
2023-04-22T20:24:40.860Z,99.90
2023-04-22T20:29:45.351Z,99.90
2023-04-22T20:34:48.316Z,99.90
2023-04-22T20:39:52.142Z,99.90
2023-04-22T20:44:55.638Z,99.90
2023-04-22T20:49:59.641Z,99.90
2023-04-22T20:55:03.578Z,99.90
2023-04-22T21:00:08.399Z,99.90
2023-04-22T21:05:16.156Z,99.90
2023-04-22T21:10:20.675Z,99.90
2023-04-22T21:15:25.359Z,99.90
2023-04-22T21:20:31.288Z,99.90
2023-04-22T21:25:35.531Z,99.90
2023-04-22T21:30:38.616Z,99.90
2023-04-22T21:35:41.673Z,99.90
2023-04-22T21:40:44.680Z,99.90
2023-04-22T21:45:47.672Z,99.90
2023-04-22T21:50:51.381Z,99.90
2023-04-22T21:55:55.302Z,99.90
2023-04-22T22:00:58.377Z,99.90
2023-04-22T22:06:03.043Z,99.90
2023-04-22T22:11:07.053Z,99.90
2023-04-22T22:16:12.416Z,99.90
2023-04-22T22:21:17.744Z,99.90
2023-04-22T22:31:24.058Z,99.90
2023-04-22T22:41:31.577Z,99.90
2023-04-22T22:46:34.605Z,99.90
2023-04-22T22:51:37.720Z,99.90
2023-04-22T22:56:40.713Z,99.90
2023-04-22T23:01:43.623Z,99.90
2023-04-22T23:06:49.730Z,99.90
2023-04-22T23:11:55.081Z,99.90
2023-04-22T23:16:58.183Z,99.90
2023-04-22T23:22:01.374Z,99.90
2023-04-22T23:27:04.935Z,99.90
2023-04-22T23:32:09.093Z,99.90
2023-04-22T23:37:15.487Z,99.90
2023-04-22T23:42:18.191Z,99.90
2023-04-22T23:47:21.142Z,99.90
2023-04-22T23:52:24.228Z,99.90
2023-04-22T23:57:27.750Z,99.90
